Time;durP1;ratioP1;P1;durP2;ratioP2;P2;SDS_P1;SDS_P2;PMS_P1;PMS_P2;Temp;Humidity;BMP_temperature;BMP_pressure;BME280_temperature;BME280_humidity;BME280_pressure;Samples;Min_cycle;Max_cycle;Signal;HPM_P1;HPM_P2
2022/11/10 00:01:09;;;;;;;6.45;4.75;;;21.60;51.70;;;;;;5030134;28;20057;-58
2022/11/10 00:03:38;;;;;;;7.50;5.00;;;21.60;51.70;;;;;;5029489;28;20045;-58
2022/11/10 00:06:08;;;;;;;9.23;4.70;;;21.60;51.70;;;;;;5030256;28;20124;-58
2022/11/10 00:08:35;;;;;;;7.78;4.82;;;21.60;51.60;;;;;;5029463;28;20049;-58
2022/11/10 00:11:06;;;;;;;8.23;6.10;;;21.60;51.60;;;;;;5028155;28;20482;-58
2022/11/10 00:16:59;;;;;;;7.95;4.40;;;21.60;51.50;;;;;;5028188;28;20047;-58
2022/11/10 00:19:10;;;;;;;7.05;4.95;;;21.60;51.40;;;;;;5029505;28;20056;-58
2022/11/10 00:21:37;;;;;;;6.07;4.43;;;21.60;51.40;;;;;;5029124;28;20495;-58
2022/11/10 00:24:04;;;;;;;5.65;4.75;;;21.60;51.40;;;;;;5029522;28;20053;-58
2022/11/10 00:26:31;;;;;;;7.22;4.82;;;21.60;51.40;;;;;;5028708;28;20450;-58
2022/11/10 00:28:58;;;;;;;7.47;4.88;;;21.60;51.40;;;;;;5029276;28;20053;-58
2022/11/10 00:31:27;;;;;;;6.32;4.88;;;21.60;51.40;;;;;;5029094;28;20049;-58
2022/11/10 00:33:54;;;;;;;6.60;4.50;;;21.60;51.40;;;;;;5028409;28;20534;-58
2022/11/10 00:36:22;;;;;;;11.88;5.00;;;21.60;51.40;;;;;;5029339;28;20400;-58
2022/11/10 00:38:50;;;;;;;10.55;4.97;;;21.60;51.40;;;;;;5028714;28;20045;-58
2022/11/10 00:41:17;;;;;;;7.45;4.32;;;21.60;51.40;;;;;;5028790;28;20306;-58
2022/11/10 00:43:44;;;;;;;6.22;4.40;;;21.60;51.40;;;;;;5024555;28;20423;-58
2022/11/10 00:46:11;;;;;;;5.93;4.55;;;21.60;51.40;;;;;;5029264;28;20584;-58
2022/11/10 00:48:39;;;;;;;5.55;4.57;;;21.60;51.40;;;;;;5029199;28;20128;-58
2022/11/10 00:51:06;;;;;;;6.22;4.53;;;21.60;51.40;;;;;;5028569;28;20478;-58
2022/11/10 00:53:33;;;;;;;6.78;5.18;;;21.60;51.40;;;;;;5028672;28;20049;-58
2022/11/10 00:56:00;;;;;;;11.55;4.85;;;21.60;51.40;;;;;;5028858;28;20228;-58
2022/11/10 00:58:27;;;;;;;5.82;4.30;;;21.60;51.40;;;;;;5028662;28;20057;-58
2022/11/10 01:01:02;;;;;;;16.33;5.47;;;21.60;51.40;;;;;;5029063;28;20490;-58
2022/11/10 01:03:29;;;;;;;6.18;4.18;;;21.60;51.40;;;;;;5027932;28;20053;-58
2022/11/10 01:05:56;;;;;;;9.45;4.70;;;21.50;51.30;;;;;;5028875;28;20053;-58
2022/11/10 01:08:23;;;;;;;5.90;4.35;;;21.60;51.40;;;;;;5028705;28;20049;-58
2022/11/10 01:10:50;;;;;;;5.20;4.00;;;21.60;51.40;;;;;;5010732;28;20053;-58
2022/11/10 01:13:17;;;;;;;9.15;4.72;;;21.60;51.40;;;;;;5028770;28;20124;-58
2022/11/10 01:15:45;;;;;;;6.95;4.22;;;21.60;51.40;;;;;;5023190;28;20442;-58
2022/11/10 01:18:13;;;;;;;6.65;4.90;;;21.60;51.40;;;;;;5028726;28;20058;-58
2022/11/10 01:20:40;;;;;;;7.60;4.82;;;21.60;51.50;;;;;;5028696;28;20054;-58
2022/11/10 01:23:07;;;;;;;6.18;4.65;;;21.60;51.40;;;;;;5028307;28;20057;-58
2022/11/10 01:25:34;;;;;;;6.28;4.63;;;21.50;51.40;;;;;;5028283;28;20060;-58
2022/11/10 01:28:01;;;;;;;7.03;4.68;;;21.60;51.50;;;;;;5027821;28;20053;-58
2022/11/10 01:30:28;;;;;;;4.68;4.18;;;21.60;51.50;;;;;;5028352;28;20059;-58
2022/11/10 01:32:55;;;;;;;5.65;4.28;;;21.50;51.40;;;;;;5018329;28;20058;-58
2022/11/10 01:35:22;;;;;;;6.45;4.47;;;21.50;51.40;;;;;;5008252;28;20046;-58
2022/11/10 01:37:51;;;;;;;4.75;4.22;;;21.50;51.40;;;;;;5008308;28;20064;-58
2022/11/10 01:40:19;;;;;;;5.68;4.45;;;21.50;51.50;;;;;;5008079;28;20054;-58
2022/11/10 01:42:56;;;;;;;5.57;3.88;;;21.50;51.50;;;;;;5009306;28;20042;-58
2022/11/10 01:45:49;;;;;;;7.75;4.47;;;21.50;51.50;;;;;;5007745;28;20056;-58
2022/11/10 01:48:42;;;;;;;6.07;4.15;;;21.50;51.50;;;;;;5003837;28;20052;-58
2022/11/10 01:51:21;;;;;;;6.20;4.25;;;21.50;51.50;;;;;;5008324;28;20525;-58
2022/11/10 01:53:55;;;;;;;7.88;4.20;;;21.50;51.60;;;;;;5008227;28;20049;-58
2022/11/10 01:56:24;;;;;;;8.48;4.95;;;21.50;51.60;;;;;;5007935;28;20050;-59
2022/11/10 01:58:57;;;;;;;6.38;4.38;;;21.50;51.70;;;;;;5007748;28;20062;-58
2022/11/10 02:01:24;;;;;;;8.55;4.85;;;21.50;51.70;;;;;;5008085;28;20038;-58
2022/11/10 02:03:58;;;;;;;7.40;4.55;;;21.50;52.30;;;;;;4995750;28;20430;-58
2022/11/10 02:06:29;;;;;;;7.78;4.10;;;21.40;51.70;;;;;;5028388;28;20061;-58
2022/11/10 02:08:58;;;;;;;;;;;21.50;51.70;;;;;;5028663;28;20050;-58
2022/11/10 02:11:27;;;;;;;5.50;4.03;;;21.50;51.80;;;;;;5027146;28;19929;-58
2022/11/10 02:13:55;;;;;;;6.90;4.63;;;21.40;51.70;;;;;;5028118;28;20553;-58
2022/11/10 02:16:22;;;;;;;5.60;4.25;;;21.40;51.70;;;;;;5030841;28;20630;-58
2022/11/10 02:18:49;;;;;;;6.82;4.57;;;21.50;51.70;;;;;;5030170;28;20399;-58
2022/11/10 02:21:17;;;;;;;7.13;4.72;;;21.40;51.60;;;;;;5029102;28;20049;-58
2022/11/10 02:23:53;;;;;;;6.18;4.25;;;21.40;51.60;;;;;;5031649;28;20045;-59
2022/11/10 02:26:24;;;;;;;5.40;4.28;;;21.40;51.60;;;;;;5030928;28;20505;-59
2022/11/10 02:28:51;;;;;;;6.15;4.55;;;21.40;51.60;;;;;;5030968;28;20037;-58
2022/11/10 02:31:18;;;;;;;8.75;5.13;;;21.40;51.60;;;;;;5031758;28;20049;-58
2022/11/10 02:33:45;;;;;;;4.57;3.60;;;21.40;51.60;;;;;;5031082;28;20124;-58
2022/11/10 02:36:13;;;;;;;9.25;4.70;;;21.40;51.60;;;;;;5022498;28;20045;-58
2022/11/10 02:38:40;;;;;;;5.65;3.80;;;21.40;51.60;;;;;;5011884;28;20054;-58
2022/11/10 02:41:07;;;;;;;4.88;4.13;;;21.40;51.60;;;;;;4993706;28;20069;-58
2022/11/10 02:43:36;;;;;;;5.88;4.15;;;21.40;51.60;;;;;;5011901;28;20050;-58
2022/11/10 02:46:03;;;;;;;6.18;4.53;;;21.40;51.60;;;;;;5010186;28;20046;-58
2022/11/10 02:48:30;;;;;;;6.18;4.40;;;21.40;51.60;;;;;;4993647;28;20046;-58
2022/11/10 02:50:57;;;;;;;5.78;4.15;;;21.40;51.60;;;;;;5009839;28;20046;-58
2022/11/10 02:53:24;;;;;;;7.18;5.18;;;21.40;51.70;;;;;;5008220;28;20496;-58
2022/11/10 02:55:51;;;;;;;6.60;4.75;;;21.40;51.70;;;;;;5017830;28;20537;-58
2022/11/10 02:58:18;;;;;;;6.18;5.10;;;21.40;51.70;;;;;;5030650;28;20049;-58
2022/11/10 03:00:45;;;;;;;6.05;4.70;;;21.40;51.70;;;;;;5030196;28;20049;-58
2022/11/10 03:03:12;;;;;;;5.93;4.30;;;21.40;51.70;;;;;;5010771;28;20050;-58
2022/11/10 03:05:39;;;;;;;4.82;4.28;;;21.40;51.70;;;;;;5011085;28;20046;-58
2022/11/10 03:08:06;;;;;;;4.65;4.13;;;21.40;51.70;;;;;;5011314;28;20435;-59
2022/11/10 03:10:33;;;;;;;5.78;4.32;;;21.40;51.70;;;;;;5010904;28;20060;-58
2022/11/10 03:13:01;;;;;;;6.70;4.88;;;21.40;51.70;;;;;;5011087;28;20046;-58
2022/11/10 03:15:29;;;;;;;6.75;4.60;;;21.40;51.70;;;;;;5010186;28;20381;-58
2022/11/10 03:18:01;;;;;;;5.30;4.40;;;21.40;51.70;;;;;;5011059;28;20050;-58
2022/11/10 03:20:28;;;;;;;4.63;3.97;;;21.40;51.80;;;;;;5010593;28;20046;-58
2022/11/10 03:23:04;;;;;;;7.05;4.35;;;21.30;51.70;;;;;;5006179;28;20393;-58
2022/11/10 03:25:31;;;;;;;5.15;4.22;;;21.40;51.80;;;;;;4977671;28;20050;-58
2022/11/10 03:27:58;;;;;;;4.60;4.10;;;21.30;51.70;;;;;;5010456;28;20068;-58
2022/11/10 03:30:25;;;;;;;9.05;5.60;;;21.30;51.80;;;;;;5010621;28;20061;-58
2022/11/10 03:32:52;;;;;;;5.75;4.38;;;21.30;51.80;;;;;;5010359;28;20506;-58
2022/11/10 03:35:19;;;;;;;6.43;4.90;;;21.30;51.80;;;;;;5010478;28;20046;-58
2022/11/10 03:37:47;;;;;;;5.63;4.40;;;21.30;51.80;;;;;;5010070;28;20050;-58
2022/11/10 03:40:14;;;;;;;4.97;4.47;;;21.30;51.80;;;;;;5009908;28;20056;-58
2022/11/10 03:42:42;;;;;;;7.25;5.30;;;21.30;51.80;;;;;;5010782;28;20053;-58
2022/11/10 03:45:11;;;;;;;7.18;4.40;;;21.30;51.80;;;;;;5010810;28;20046;-58
2022/11/10 03:47:38;;;;;;;5.93;4.32;;;21.30;51.90;;;;;;5009797;28;20053;-58
2022/11/10 03:50:06;;;;;;;6.30;4.43;;;21.30;51.90;;;;;;5010658;28;20038;-59
2022/11/10 03:52:33;;;;;;;6.50;5.00;;;21.30;51.90;;;;;;4992448;28;20057;-58
2022/11/10 03:55:00;;;;;;;4.82;4.25;;;21.20;51.90;;;;;;5006155;28;20057;-58
2022/11/10 03:57:29;;;;;;;5.97;4.45;;;21.30;51.90;;;;;;5009845;28;20096;-58
2022/11/10 03:59:56;;;;;;;5.88;4.38;;;21.20;51.90;;;;;;4992507;28;20056;-58
2022/11/10 04:02:23;;;;;;;5.22;4.07;;;21.20;51.90;;;;;;4992443;28;20259;-58
2022/11/10 04:10:24;;;;;;;5.07;4.13;;;21.20;51.90;;;;;;5009300;28;20050;-59
2022/11/10 04:15:41;;;;;;;5.07;4.45;;;21.20;51.80;;;;;;5009692;28;20065;-58
2022/11/10 04:18:25;;;;;;;5.53;4.40;;;21.30;51.90;;;;;;5009736;28;20045;-58
2022/11/10 04:20:58;;;;;;;6.55;4.07;;;21.20;51.80;;;;;;5009796;28;20042;-58
2022/11/10 04:23:33;;;;;;;7.25;5.53;;;21.20;51.80;;;;;;5009219;28;20049;-58
2022/11/10 04:26:27;;;;;;;5.20;4.65;;;21.30;51.80;;;;;;5009108;28;20578;-58
2022/11/10 04:28:57;;;;;;;5.82;4.60;;;21.30;51.80;;;;;;4991629;28;20042;-58
2022/11/10 04:31:26;;;;;;;6.63;5.33;;;21.30;51.80;;;;;;5009861;28;20046;-58
2022/11/10 04:33:54;;;;;;;5.70;4.55;;;21.20;51.80;;;;;;5009247;28;20060;-58
2022/11/10 04:36:24;;;;;;;4.93;3.80;;;21.20;51.80;;;;;;5009184;28;20065;-58
2022/11/10 04:38:51;;;;;;;6.00;4.63;;;21.20;51.80;;;;;;5009035;28;20049;-58
2022/11/10 04:41:18;;;;;;;5.80;5.15;;;21.20;52.30;;;;;;5009153;28;20050;-58
2022/11/10 04:43:45;;;;;;;6.97;5.20;;;21.20;51.80;;;;;;5025792;28;20447;-58
2022/11/10 04:46:26;;;;;;;7.07;4.82;;;21.20;51.80;;;;;;5028655;28;20052;-58
2022/11/10 04:48:54;;;;;;;5.68;4.35;;;21.20;51.80;;;;;;5028873;28;20057;-58
2022/11/10 04:51:24;;;;;;;6.65;5.03;;;21.20;51.80;;;;;;5028777;28;20053;-58
2022/11/10 04:53:51;;;;;;;7.33;4.60;;;21.20;51.80;;;;;;5028371;28;20582;-58
2022/11/10 04:56:20;;;;;;;5.70;4.47;;;21.20;51.80;;;;;;5029032;28;20294;-58
2022/11/10 04:58:48;;;;;;;6.00;4.78;;;21.20;51.80;;;;;;5023374;28;20046;-58
2022/11/10 05:01:18;;;;;;;6.60;4.90;;;21.20;51.80;;;;;;5010811;28;20407;-58
2022/11/10 05:03:47;;;;;;;7.00;5.40;;;21.20;51.80;;;;;;5028339;28;20045;-58
2022/11/10 05:06:14;;;;;;;8.02;5.50;;;21.20;51.90;;;;;;5028688;28;20045;-58
2022/11/10 05:08:42;;;;;;;6.00;5.20;;;21.20;51.90;;;;;;5028999;28;20053;-58
2022/11/10 05:11:10;;;;;;;6.20;4.53;;;21.20;51.90;;;;;;5028284;28;20053;-59
2022/11/10 05:13:38;;;;;;;5.32;4.72;;;21.20;51.90;;;;;;5011052;28;20056;-58
2022/11/10 05:16:06;;;;;;;7.70;4.97;;;21.20;51.90;;;;;;5008603;28;20123;-58
2022/11/10 05:18:33;;;;;;;7.43;4.78;;;21.20;51.90;;;;;;5007669;28;20538;-58
2022/11/10 05:21:00;;;;;;;6.38;4.97;;;21.20;51.90;;;;;;5008882;28;20566;-58
2022/11/10 05:23:37;;;;;;;5.68;4.55;;;21.20;51.90;;;;;;5008384;28;20074;-58
2022/11/10 05:26:12;;;;;;;4.88;4.47;;;21.20;51.90;;;;;;5009146;28;20494;-58
2022/11/10 05:28:41;;;;;;;6.15;4.80;;;21.20;51.90;;;;;;4991439;28;20056;-58
2022/11/10 05:31:09;;;;;;;5.68;4.90;;;21.20;51.90;;;;;;5003091;28;20053;-58
2022/11/10 05:33:37;;;;;;;7.78;5.43;;;21.20;51.90;;;;;;5008452;28;20053;-58
2022/11/10 05:36:05;;;;;;;7.00;5.50;;;21.20;51.90;;;;;;5021505;28;20523;-58
2022/11/10 05:38:32;;;;;;;6.97;5.28;;;21.20;51.70;;;;;;5028388;28;20558;-58
2022/11/10 05:41:04;;;;;;;6.57;5.35;;;21.10;51.60;;;;;;5027314;28;20052;-58
2022/11/10 05:43:31;;;;;;;7.30;5.82;;;21.10;51.50;;;;;;5014716;28;20057;-58
2022/11/10 05:45:59;;;;;;;8.00;5.78;;;21.20;51.50;;;;;;5028529;28;20050;-58
2022/11/10 05:48:26;;;;;;;7.97;6.03;;;21.10;51.40;;;;;;5027950;28;20053;-58
2022/11/10 05:50:53;;;;;;;9.43;5.95;;;21.10;51.40;;;;;;5030448;28;20048;-58
2022/11/10 05:53:20;;;;;;;9.65;6.00;;;21.10;51.40;;;;;;5031576;28;20057;-58
2022/11/10 05:55:47;;;;;;;11.23;6.90;;;21.10;51.40;;;;;;5033204;28;20048;-59
2022/11/10 05:58:14;;;;;;;8.48;6.18;;;21.10;51.30;;;;;;5033016;28;20068;-58
2022/11/10 06:00:42;;;;;;;10.65;7.20;;;21.10;51.30;;;;;;5014754;28;20050;-59
2022/11/10 06:03:14;;;;;;;10.25;6.32;;;21.10;51.30;;;;;;5026480;28;20067;-58
2022/11/10 06:05:41;;;;;;;11.48;6.82;;;21.10;51.30;;;;;;5031898;28;20045;-58
2022/11/10 06:08:09;;;;;;;7.80;6.15;;;21.10;51.30;;;;;;5032204;28;20518;-58
2022/11/10 06:10:36;;;;;;;9.70;6.65;;;21.10;51.30;;;;;;5031842;28;20049;-58
2022/11/10 06:13:04;;;;;;;10.90;6.93;;;21.10;51.20;;;;;;5032579;28;20049;-58
2022/11/10 06:15:31;;;;;;;10.35;6.97;;;21.10;51.20;;;;;;5032392;28;20495;-58
2022/11/10 06:17:58;;;;;;;10.45;6.53;;;21.10;51.20;;;;;;5032334;28;20072;-58
2022/11/10 06:20:25;;;;;;;9.85;6.97;;;21.10;51.10;;;;;;5024426;28;20050;-58
2022/11/10 06:23:04;;;;;;;9.98;6.85;;;21.10;51.30;;;;;;5028620;28;20403;-58
2022/11/10 06:25:34;;;;;;;14.50;6.25;;;21.10;51.50;;;;;;5024550;28;20053;-58
2022/11/10 06:28:01;;;;;;;10.80;6.53;;;21.10;51.60;;;;;;5026159;28;20045;-59
2022/11/10 06:30:30;;;;;;;8.27;6.20;;;21.10;51.70;;;;;;5024310;28;20552;-58
2022/11/10 06:32:58;;;;;;;9.07;6.22;;;21.10;51.70;;;;;;5025633;28;20430;-58
2022/11/10 06:35:26;;;;;;;8.30;5.90;;;21.10;51.50;;;;;;5025810;28;20037;-60
2022/11/10 06:38:05;;;;;;;9.07;6.28;;;21.10;51.40;;;;;;5029590;28;20467;-60
2022/11/10 06:40:32;;;;;;;9.40;7.00;;;21.10;51.30;;;;;;5019499;28;20416;-60
2022/11/10 06:43:00;;;;;;;10.05;6.25;;;21.10;51.20;;;;;;5021837;28;20050;-60
2022/11/10 06:45:28;;;;;;;9.57;6.20;;;21.10;51.10;;;;;;5024337;28;20048;-61
2022/11/10 06:48:05;;;;;;;11.10;6.25;;;21.10;51.20;;;;;;5018819;28;20140;-60
2022/11/10 06:50:32;;;;;;;10.43;6.45;;;21.10;51.50;;;;;;5017311;28;20049;-60
2022/11/10 06:53:00;;;;;;;8.05;5.90;;;21.20;51.60;;;;;;5023139;28;20049;-61
2022/11/10 06:55:28;;;;;;;9.93;6.78;;;21.10;51.40;;;;;;5020697;28;20512;-60
2022/11/10 06:57:56;;;;;;;12.15;6.60;;;21.20;51.50;;;;;;5019600;28;20041;-61
2022/11/10 07:00:24;;;;;;;8.30;5.55;;;21.20;51.60;;;;;;5020539;28;20060;-60
2022/11/10 07:03:03;;;;;;;8.40;5.80;;;21.20;51.70;;;;;;5002077;28;20049;-59
2022/11/10 07:05:33;;;;;;;10.63;6.30;;;21.30;51.80;;;;;;5021627;28;20054;-60
2022/11/10 07:08:03;;;;;;;12.27;6.57;;;21.30;51.80;;;;;;5016845;28;20505;-59
2022/11/10 07:10:30;;;;;;;10.00;6.70;;;21.30;51.70;;;;;;5021398;28;20037;-59
2022/11/10 07:12:58;;;;;;;12.38;6.30;;;21.40;51.90;;;;;;5020533;28;20045;-58
2022/11/10 07:15:26;;;;;;;8.10;5.53;;;21.40;52.00;;;;;;5020900;28;20117;-59
2022/11/10 07:17:53;;;;;;;11.40;6.65;;;21.40;52.00;;;;;;5022870;28;20058;-60
2022/11/10 07:20:20;;;;;;;8.77;6.40;;;21.40;51.90;;;;;;5021854;28;20088;-59
2022/11/10 07:22:48;;;;;;;11.65;7.47;;;21.40;51.90;;;;;;5020822;28;20042;-60
2022/11/10 07:25:15;;;;;;;10.60;6.18;;;21.50;51.90;;;;;;5002461;28;20053;-60
2022/11/10 07:27:42;;;;;;;9.65;6.68;;;21.50;52.00;;;;;;5024721;28;20045;-60
2022/11/10 07:30:10;;;;;;;9.77;6.45;;;21.50;52.10;;;;;;5023409;28;20507;-59
2022/11/10 07:32:37;;;;;;;10.88;6.47;;;21.60;52.20;;;;;;5023263;28;20051;-61
2022/11/10 07:35:04;;;;;;;10.02;6.35;;;21.60;52.30;;;;;;5021687;28;20396;-60
2022/11/10 07:37:31;;;;;;;12.30;6.55;;;21.70;52.30;;;;;;5017192;28;20057;-61
2022/11/10 07:39:59;;;;;;;12.43;6.32;;;21.70;52.30;;;;;;5020822;28;20731;-61
2022/11/10 07:42:26;;;;;;;9.52;6.20;;;21.70;52.30;;;;;;5019335;28;20049;-60
2022/11/10 07:44:53;;;;;;;9.32;6.10;;;21.80;52.40;;;;;;5017206;28;20500;-63
2022/11/10 07:47:23;;;;;;;9.13;6.25;;;21.80;52.30;;;;;;5019490;28;20132;-61
2022/11/10 07:49:50;;;;;;;11.43;6.50;;;21.80;52.40;;;;;;5018477;28;21618;-62
2022/11/10 07:52:18;;;;;;;10.20;6.15;;;21.90;52.40;;;;;;5013638;28;20048;-62
2022/11/10 07:54:45;;;;;;;10.60;5.80;;;21.90;52.30;;;;;;5014213;28;20071;-63
2022/11/10 07:57:13;;;;;;;11.43;6.20;;;22.00;52.30;;;;;;5020738;28;21635;-62
2022/11/10 07:59:40;;;;;;;9.52;5.95;;;22.00;52.20;;;;;;5022097;28;20041;-61
2022/11/10 08:02:10;;;;;;;9.60;6.47;;;22.00;52.00;;;;;;5016012;28;20140;-62
2022/11/10 08:04:37;;;;;;;10.00;6.30;;;22.00;51.80;;;;;;5020456;28;20161;-61
2022/11/10 08:07:05;;;;;;;8.68;5.90;;;22.10;51.70;;;;;;5020215;28;20321;-60
2022/11/10 08:09:32;;;;;;;9.40;6.13;;;22.20;51.60;;;;;;5020347;28;20081;-60
2022/11/10 08:11:59;;;;;;;8.70;5.97;;;22.10;51.50;;;;;;5012115;28;20050;-60
2022/11/10 08:14:26;;;;;;;8.55;6.30;;;22.10;51.40;;;;;;5014753;28;20084;-61
2022/11/10 08:16:54;;;;;;;8.07;6.25;;;22.10;51.30;;;;;;5010446;28;20517;-61
2022/11/10 08:19:21;;;;;;;11.95;6.00;;;22.20;51.30;;;;;;5017936;28;20054;-60
2022/11/10 08:21:48;;;;;;;11.60;5.80;;;22.20;51.20;;;;;;5022878;28;20057;-59
2022/11/10 08:24:15;;;;;;;7.57;5.53;;;22.30;51.00;;;;;;5019187;28;20045;-59
2022/11/10 08:26:42;;;;;;;10.80;5.95;;;22.30;50.90;;;;;;5018808;28;20052;-60
2022/11/10 08:29:10;;;;;;;11.20;6.70;;;22.40;50.80;;;;;;5019755;28;20053;-61
2022/11/10 08:31:37;;;;;;;9.25;5.70;;;22.40;50.70;;;;;;5020343;28;20085;-61
2022/11/10 08:34:04;;;;;;;7.95;5.60;;;22.40;50.60;;;;;;5015174;28;20510;-60
2022/11/10 08:36:31;;;;;;;9.48;5.97;;;22.50;50.50;;;;;;5020495;28;20045;-59
2022/11/10 08:38:58;;;;;;;9.52;5.90;;;22.50;50.30;;;;;;5018104;28;20136;-62
2022/11/10 08:41:26;;;;;;;7.82;5.72;;;22.50;50.20;;;;;;5012757;28;20041;-64
2022/11/10 08:43:53;;;;;;;7.68;5.85;;;22.50;50.00;;;;;;5009241;28;20038;-62
2022/11/10 08:46:20;;;;;;;8.20;6.07;;;22.60;49.80;;;;;;5017394;28;20045;-59
2022/11/10 08:48:47;;;;;;;7.85;5.78;;;22.50;49.60;;;;;;5018436;28;20041;-59
2022/11/10 08:51:14;;;;;;;12.20;5.97;;;22.60;49.70;;;;;;5015530;28;20499;-60
2022/11/10 08:53:42;;;;;;;9.52;6.05;;;22.60;49.90;;;;;;5012534;28;20518;-62
2022/11/10 08:56:10;;;;;;;9.68;6.00;;;22.60;49.90;;;;;;5016997;28;20052;-60
2022/11/10 08:58:37;;;;;;;9.75;5.47;;;22.60;49.90;;;;;;5019108;28;20495;-59
2022/11/10 09:01:19;;;;;;;11.25;5.65;;;22.70;50.00;;;;;;5015326;28;20139;-61
2022/11/10 09:03:50;;;;;;;7.07;5.15;;;22.70;49.90;;;;;;5015474;28;20057;-60
2022/11/10 09:06:17;;;;;;;12.40;5.63;;;22.80;49.90;;;;;;5019139;28;20061;-61
2022/11/10 09:08:44;;;;;;;11.35;5.82;;;22.80;49.60;;;;;;5016241;28;20041;-60
2022/11/10 09:11:11;;;;;;;7.63;4.75;;;22.90;49.40;;;;;;5013262;28;20111;-60
2022/11/10 09:13:38;;;;;;;11.55;6.00;;;23.00;49.30;;;;;;5015394;28;20053;-59
2022/11/10 09:16:05;;;;;;;7.80;4.75;;;23.00;49.10;;;;;;5009293;28;20045;-59
2022/11/10 09:18:33;;;;;;;7.68;6.07;;;23.00;48.90;;;;;;5015212;28;20132;-60
2022/11/10 09:21:02;;;;;;;9.70;5.68;;;23.00;48.80;;;;;;4996753;28;20053;-60
2022/11/10 09:23:29;;;;;;;7.97;5.35;;;23.00;48.80;;;;;;5014620;28;20073;-60
2022/11/10 09:25:56;;;;;;;8.07;5.60;;;23.10;48.60;;;;;;5014634;28;20049;-60
2022/11/10 09:28:24;;;;;;;9.15;5.55;;;23.10;48.80;;;;;;5017412;28;20044;-60
2022/11/10 09:30:52;;;;;;;11.13;6.32;;;23.10;48.60;;;;;;5019925;28;20414;-58
2022/11/10 09:33:19;;;;;;;6.72;4.93;;;23.10;48.60;;;;;;5010979;28;20324;-61
2022/11/10 09:35:47;;;;;;;7.35;5.57;;;23.10;48.60;;;;;;5003661;28;20050;-61
2022/11/10 09:38:16;;;;;;;10.02;5.30;;;23.20;48.40;;;;;;5013522;28;20088;-62
2022/11/10 09:41:08;;;;;;;7.57;5.47;;;23.20;48.40;;;;;;5013476;28;20372;-62
2022/11/10 09:44:00;;;;;;;7.53;5.15;;;23.20;48.20;;;;;;5004258;28;20414;-63
2022/11/10 09:46:39;;;;;;;9.00;5.72;;;23.20;48.30;;;;;;4994609;28;20093;-62
2022/11/10 09:49:29;;;;;;;6.28;4.80;;;23.30;48.20;;;;;;5018490;28;20041;-62
2022/11/10 09:51:59;;;;;;;9.82;6.07;;;23.20;48.00;;;;;;5015808;28;20053;-60
2022/11/10 09:54:38;;;;;;;9.38;5.72;;;23.20;48.00;;;;;;5014993;28;20384;-58
2022/11/10 09:57:09;;;;;;;12.38;5.57;;;23.20;48.00;;;;;;5013166;28;20081;-60
2022/11/10 09:59:36;;;;;;;12.38;5.40;;;23.30;48.20;;;;;;4997089;28;20056;-59
2022/11/10 10:02:41;;;;;;;11.02;5.90;;;23.20;48.00;;;;;;5016798;28;20049;-59
2022/11/10 10:05:45;;;;;;;10.88;5.55;;;23.30;47.90;;;;;;5014569;28;20037;-60
2022/11/10 10:08:41;;;;;;;9.57;5.75;;;23.30;48.00;;;;;;5014885;28;20046;-61
2022/11/10 10:11:34;;;;;;;11.88;5.50;;;23.30;47.90;;;;;;5016209;28;20168;-61
2022/11/10 10:14:30;;;;;;;7.93;5.53;;;23.30;47.80;;;;;;5002462;28;20502;-61
2022/11/10 10:17:26;;;;;;;8.02;4.80;;;23.30;47.60;;;;;;5019488;28;20517;-60
2022/11/10 10:20:23;;;;;;;8.85;5.22;;;23.30;47.50;;;;;;5011782;28;20045;-60
2022/11/10 10:23:15;;;;;;;9.55;5.75;;;23.30;47.40;;;;;;5016272;28;20045;-61
2022/11/10 10:25:45;;;;;;;10.68;6.00;;;23.30;47.30;;;;;;5011338;28;20049;-60
2022/11/10 10:28:27;;;;;;;6.28;4.65;;;23.40;47.30;;;;;;5021699;28;20406;-61
2022/11/10 10:31:16;;;;;;;10.95;5.30;;;23.40;47.20;;;;;;5002453;28;20053;-61
2022/11/10 10:33:44;;;;;;;7.68;5.45;;;23.40;47.20;;;;;;5015825;28;20767;-61
2022/11/10 10:36:28;;;;;;;9.98;6.30;;;23.40;47.30;;;;;;5021984;28;20104;-62
2022/11/10 10:39:01;;;;;;;9.18;6.03;;;23.40;47.10;;;;;;5018759;28;20663;-61
2022/11/10 10:41:30;;;;;;;10.80;6.05;;;23.40;47.10;;;;;;5021066;28;20068;-60
2022/11/10 10:44:00;;;;;;;14.02;5.55;;;23.40;47.00;;;;;;5018103;28;20042;-61
2022/11/10 10:46:30;;;;;;;13.63;6.00;;;23.40;47.10;;;;;;4988296;28;20129;-61
2022/11/10 10:49:23;;;;;;;6.90;5.28;;;23.40;47.20;;;;;;5022307;28;20053;-61
2022/11/10 10:52:09;;;;;;;9.85;5.75;;;23.40;47.10;;;;;;4999696;28;20443;-62
2022/11/10 10:54:38;;;;;;;7.57;4.57;;;23.40;47.10;;;;;;5001229;28;20053;-61
2022/11/10 10:57:27;;;;;;;8.52;5.47;;;23.40;47.00;;;;;;5023960;28;20049;-60
2022/11/10 11:00:22;;;;;;;8.88;5.13;;;23.40;47.10;;;;;;5022103;28;20064;-60
2022/11/10 11:03:11;;;;;;;10.75;5.97;;;23.40;47.00;;;;;;5005572;28;20454;-61
2022/11/10 11:05:38;;;;;;;8.80;6.07;;;23.40;47.00;;;;;;5022463;28;20041;-60
2022/11/10 11:08:17;;;;;;;8.15;5.38;;;23.40;47.00;;;;;;5025435;28;20463;-61
2022/11/10 11:10:46;;;;;;;8.73;6.22;;;23.40;47.10;;;;;;5020023;28;20055;-61
2022/11/10 11:13:26;;;;;;;8.07;5.90;;;23.40;47.10;;;;;;5018314;28;20053;-62
2022/11/10 11:16:06;;;;;;;6.95;5.38;;;23.40;47.20;;;;;;5022659;28;20490;-61
2022/11/10 11:18:35;;;;;;;9.05;6.40;;;23.40;47.10;;;;;;5006717;28;20049;-61
2022/11/10 11:21:27;;;;;;;7.60;5.55;;;23.40;47.10;;;;;;5025988;28;20491;-61
2022/11/10 11:24:21;;;;;;;8.00;4.97;;;23.40;46.90;;;;;;5018946;28;20049;-61
2022/11/10 11:27:15;;;;;;;8.52;5.15;;;23.40;46.70;;;;;;5011006;28;20045;-61
2022/11/10 11:30:01;;;;;;;10.45;5.22;;;23.40;46.60;;;;;;5025801;28;20046;-60
2022/11/10 11:33:01;;;;;;;8.27;5.38;;;23.40;46.60;;;;;;5024293;28;20077;-61
2022/11/10 11:36:06;;;;;;;8.48;5.45;;;23.40;46.50;;;;;;5020032;28;20057;-61
2022/11/10 11:39:12;;;;;;;7.32;5.57;;;23.40;46.40;;;;;;5024297;28;20459;-61
2022/11/10 11:42:14;;;;;;;8.25;5.78;;;23.40;46.40;;;;;;5025477;28;20399;-61
2022/11/10 11:45:11;;;;;;;7.20;5.57;;;23.50;46.40;;;;;;5011067;28;20124;-60
2022/11/10 11:48:01;;;;;;;8.68;5.18;;;23.40;46.20;;;;;;5020752;28;20512;-60
2022/11/10 11:50:30;;;;;;;;;;;23.50;46.30;;;;;;5019861;28;20058;-60
2022/11/10 11:53:38;;;;;;;8.93;6.03;;;23.40;46.40;;;;;;5017659;28;19935;-60
2022/11/10 11:56:27;;;;;;;8.32;5.32;;;23.40;46.50;;;;;;5006114;28;20077;-60
2022/11/10 11:59:31;;;;;;;11.70;5.82;;;23.40;46.50;;;;;;5018489;28;20050;-60
2022/11/10 12:02:30;;;;;;;12.40;5.78;;;23.50;46.60;;;;;;5003073;28;20046;-61
2022/11/10 12:05:28;;;;;;;11.57;5.28;;;23.50;46.70;;;;;;4997144;28;20050;-60
2022/11/10 12:08:10;;;;;;;7.18;4.80;;;23.50;46.70;;;;;;5021360;28;20136;-62
2022/11/10 12:10:53;;;;;;;8.27;5.70;;;23.50;46.70;;;;;;5017900;28;20056;-61
2022/11/10 12:13:35;;;;;;;9.38;5.90;;;23.50;46.60;;;;;;5015831;28;20064;-61
2022/11/10 12:16:17;;;;;;;9.23;5.82;;;23.50;46.60;;;;;;5019014;28;20057;-61
2022/11/10 12:19:06;;;;;;;7.53;5.07;;;23.50;46.50;;;;;;5016824;28;20511;-63
2022/11/10 12:21:43;;;;;;;10.27;6.47;;;23.50;46.40;;;;;;5009245;28;20045;-64
2022/11/10 12:24:27;;;;;;;9.23;5.82;;;23.60;46.40;;;;;;5021815;28;20507;-64
2022/11/10 12:27:02;;;;;;;8.52;5.38;;;23.50;46.40;;;;;;5018917;28;20058;-62
2022/11/10 12:29:43;;;;;;;8.75;5.70;;;23.60;46.40;;;;;;5021069;28;20056;-66
2022/11/10 12:32:26;;;;;;;9.38;6.07;;;23.60;46.40;;;;;;5017899;28;20045;-64
2022/11/10 12:35:01;;;;;;;10.00;5.72;;;23.60;46.30;;;;;;5019802;28;20053;-64
2022/11/10 12:37:38;;;;;;;7.78;5.38;;;23.60;46.40;;;;;;4993244;28;20049;-65
2022/11/10 12:40:16;;;;;;;8.50;5.65;;;23.60;46.50;;;;;;5019547;28;20134;-66
2022/11/10 12:42:49;;;;;;;7.97;4.85;;;23.60;46.50;;;;;;5019573;28;20128;-65
2022/11/10 12:45:34;;;;;;;7.80;5.50;;;23.60;46.80;;;;;;5001717;28;20053;-66
2022/11/10 12:48:03;;;;;;;8.55;5.47;;;23.60;46.90;;;;;;5018532;28;20072;-64
2022/11/10 12:51:10;;;;;;;9.75;5.10;;;23.60;46.90;;;;;;5020636;28;20483;-65
2022/11/10 12:53:41;;;;;;;9.50;5.63;;;23.60;47.10;;;;;;5019889;28;20046;-65
2022/11/10 12:56:17;;;;;;;7.78;5.45;;;23.60;47.10;;;;;;5018549;28;20049;-65
2022/11/10 12:58:45;;;;;;;6.68;4.80;;;23.60;47.10;;;;;;5018404;28;21565;-64
2022/11/10 13:01:17;;;;;;;11.02;6.13;;;23.60;47.00;;;;;;5015684;28;20051;-65
2022/11/10 13:03:59;;;;;;;10.50;6.05;;;23.60;47.10;;;;;;5016112;28;20049;-65
2022/11/10 13:06:34;;;;;;;7.07;5.00;;;23.60;47.10;;;;;;5017267;28;20049;-64
2022/11/10 13:09:02;;;;;;;9.38;4.90;;;23.60;47.10;;;;;;5019211;28;20053;-66
2022/11/10 13:11:33;;;;;;;8.25;5.43;;;23.60;47.20;;;;;;5022891;28;20042;-64
2022/11/10 13:14:03;;;;;;;10.23;5.95;;;23.60;47.20;;;;;;5022127;28;20057;-64
2022/11/10 13:16:50;;;;;;;8.13;5.57;;;23.60;47.20;;;;;;5018739;28;20042;-63
2022/11/10 13:19:48;;;;;;;10.02;5.88;;;23.60;47.20;;;;;;5000282;28;20048;-63
2022/11/10 13:22:35;;;;;;;11.90;5.85;;;23.60;47.10;;;;;;5020315;28;20538;-78
2022/11/10 13:25:40;;;;;;;10.75;5.57;;;23.60;47.10;;;;;;4991775;28;20111;-62